createdAt,value
2022-10-05T00:01:35.802Z,45.75
2022-10-05T00:04:16.710Z,45.07
2022-10-05T00:07:08.812Z,46.33
2022-10-05T00:09:39.365Z,45.98
2022-10-05T00:12:21.123Z,45.39
2022-10-05T00:14:55.077Z,45.80
2022-10-05T00:17:28.901Z,45.88
2022-10-05T00:19:59.549Z,45.14
2022-10-05T00:22:36.404Z,45.11
2022-10-05T00:25:16.698Z,44.29
2022-10-05T00:27:50.608Z,43.39
2022-10-05T00:30:23.727Z,42.40
2022-10-05T00:32:59.284Z,42.13
2022-10-05T00:35:30.807Z,42.94
2022-10-05T00:38:01.457Z,42.55
2022-10-05T00:40:58.694Z,45.02
2022-10-05T00:44:01.608Z,44.12
2022-10-05T00:46:49.044Z,44.16
2022-10-05T00:49:38.996Z,43.19
2022-10-05T00:52:41.581Z,43.16
2022-10-05T00:55:57.351Z,42.76
2022-10-05T00:59:12.454Z,43.13
2022-10-05T01:01:55.170Z,40.63
2022-10-05T01:04:34.707Z,42.75
2022-10-05T01:07:23.699Z,43.13
2022-10-05T01:10:24.479Z,37.06
2022-10-05T01:13:14.483Z,36.04
2022-10-05T01:16:05.208Z,35.17
2022-10-05T01:18:52.992Z,41.58
2022-10-05T01:21:26.967Z,42.39
2022-10-05T01:24:15.241Z,42.11
2022-10-05T01:27:25.694Z,42.42
2022-10-05T01:30:09.033Z,42.73
2022-10-05T01:33:08.645Z,43.24
2022-10-05T01:35:54.038Z,41.73
2022-10-05T01:38:33.825Z,42.13
2022-10-05T01:41:29.048Z,42.52
2022-10-05T01:44:26.104Z,42.44
2022-10-05T01:47:33.069Z,41.92
2022-10-05T01:50:12.781Z,42.74
2022-10-05T01:52:45.844Z,43.04
2022-10-05T01:55:32.452Z,42.44
2022-10-05T01:58:09.516Z,42.50
2022-10-05T02:00:50.832Z,42.64
2022-10-05T02:03:27.443Z,42.78
2022-10-05T02:06:08.368Z,42.20
2022-10-05T02:09:14.000Z,42.57
2022-10-05T02:11:51.154Z,42.41
2022-10-05T02:14:32.574Z,42.34
2022-10-05T02:17:10.316Z,41.02
2022-10-05T02:19:54.451Z,42.55
2022-10-05T02:22:45.833Z,42.80
2022-10-05T02:25:25.356Z,39.12
2022-10-05T02:28:23.437Z,41.98
2022-10-05T02:31:06.503Z,42.24
2022-10-05T02:33:37.369Z,41.63
2022-10-05T02:36:18.548Z,41.68
2022-10-05T02:39:22.914Z,42.33
2022-10-05T02:42:31.200Z,41.02
2022-10-05T02:45:18.863Z,40.36
2022-10-05T02:48:02.128Z,41.55
2022-10-05T02:51:00.936Z,40.04
2022-10-05T02:54:10.150Z,42.07
2022-10-05T02:57:01.512Z,41.12
2022-10-05T02:59:42.720Z,41.15
2022-10-05T03:02:51.359Z,41.59
2022-10-05T03:05:48.369Z,40.72
2022-10-05T03:08:22.160Z,40.63
2022-10-05T03:11:11.589Z,39.03
2022-10-05T03:13:56.704Z,39.34
2022-10-05T03:16:43.026Z,39.22
2022-10-05T03:19:16.947Z,37.71
2022-10-05T03:21:59.267Z,39.60
2022-10-05T03:25:01.280Z,41.01
2022-10-05T03:27:31.519Z,39.42
2022-10-05T03:30:10.641Z,39.99
2022-10-05T03:32:57.168Z,39.30
2022-10-05T03:35:37.196Z,39.66
2022-10-05T03:38:25.947Z,39.72
2022-10-05T03:41:21.215Z,38.98
2022-10-05T03:44:14.921Z,38.00
2022-10-05T03:47:17.537Z,40.50
2022-10-05T03:50:15.313Z,39.70
2022-10-05T03:53:13.694Z,39.07
2022-10-05T03:55:58.877Z,40.37
2022-10-05T03:58:43.997Z,39.70
2022-10-05T04:01:24.059Z,38.93
2022-10-05T04:04:06.980Z,38.80
2022-10-05T04:06:44.213Z,38.23
2022-10-05T04:09:33.646Z,39.84
2022-10-05T04:12:14.803Z,37.53
2022-10-05T04:15:00.110Z,38.35
2022-10-05T04:17:44.764Z,38.76
2022-10-05T04:20:46.451Z,39.12
2022-10-05T04:23:53.054Z,38.38
2022-10-05T04:26:48.267Z,38.93
2022-10-05T04:29:34.417Z,37.64
2022-10-05T04:32:32.634Z,38.86
2022-10-05T04:35:43.070Z,37.74
2022-10-05T04:38:27.958Z,38.21
2022-10-05T04:41:07.350Z,35.66
2022-10-05T04:43:37.602Z,37.85
2022-10-05T04:46:26.698Z,37.91
2022-10-05T04:49:16.005Z,37.86
2022-10-05T04:52:01.316Z,30.20
2022-10-05T04:54:41.839Z,32.66
2022-10-05T04:57:56.144Z,36.08
2022-10-05T05:00:54.629Z,34.66
2022-10-05T05:03:50.970Z,36.42
2022-10-05T05:06:36.923Z,36.18
2022-10-05T05:09:20.913Z,36.71
2022-10-05T05:12:12.139Z,38.34
2022-10-05T05:15:08.760Z,38.16
2022-10-05T05:18:05.581Z,36.18
2022-10-05T05:21:19.226Z,35.30
2022-10-05T05:23:59.262Z,36.93
2022-10-05T05:26:50.879Z,36.65
2022-10-05T05:29:45.819Z,37.07
2022-10-05T05:32:25.319Z,36.31
2022-10-05T05:35:08.923Z,34.55
2022-10-05T05:37:54.179Z,37.39
2022-10-05T05:40:43.504Z,37.35
2022-10-05T05:43:22.211Z,37.06
2022-10-05T05:46:08.216Z,37.16
2022-10-05T05:48:49.421Z,36.83
2022-10-05T05:51:27.436Z,33.84
2022-10-05T05:54:05.627Z,37.02
2022-10-05T05:56:44.972Z,36.79
2022-10-05T05:59:27.973Z,36.37
2022-10-05T06:02:23.735Z,36.69
2022-10-05T06:05:04.593Z,33.00
2022-10-05T06:07:38.596Z,32.45
2022-10-05T06:10:29.025Z,36.47
2022-10-05T06:13:31.240Z,36.77
2022-10-05T06:16:07.388Z,36.95
2022-10-05T06:18:42.263Z,36.64
2022-10-05T06:21:18.779Z,37.37
2022-10-05T06:24:08.347Z,35.02
2022-10-05T06:27:05.837Z,36.73
2022-10-05T06:29:47.806Z,36.63
2022-10-05T06:32:49.111Z,36.45
2022-10-05T06:35:45.518Z,36.59
2022-10-05T06:38:47.960Z,36.69
2022-10-05T06:41:36.568Z,36.30
2022-10-05T06:44:44.651Z,34.78
2022-10-05T06:47:50.592Z,34.88
2022-10-05T06:50:39.571Z,36.27
2022-10-05T06:53:51.793Z,36.52
2022-10-05T06:56:40.256Z,36.29
2022-10-05T06:59:30.909Z,35.84
2022-10-05T07:02:08.795Z,35.92
2022-10-05T07:05:14.393Z,34.75
2022-10-05T07:08:08.846Z,35.94
2022-10-05T07:10:59.444Z,36.23
2022-10-05T07:14:03.508Z,34.96
2022-10-05T07:17:07.967Z,35.80
2022-10-05T07:19:53.962Z,35.60
2022-10-05T07:22:48.871Z,35.98
2022-10-05T07:25:30.821Z,35.89
2022-10-05T07:28:33.296Z,36.37
2022-10-05T07:31:09.147Z,36.83
2022-10-05T07:34:08.861Z,34.98
2022-10-05T07:37:37.066Z,30.63
2022-10-05T07:40:17.705Z,35.76
2022-10-05T07:43:06.555Z,34.34
2022-10-05T07:45:49.707Z,35.16
2022-10-05T07:48:37.225Z,36.09
2022-10-05T07:51:31.343Z,35.26
2022-10-05T07:54:22.899Z,36.47
2022-10-05T07:57:15.323Z,36.17
2022-10-05T07:59:58.437Z,35.77
2022-10-05T08:02:50.627Z,36.05
2022-10-05T08:05:34.538Z,36.27
2022-10-05T08:08:28.425Z,36.76
2022-10-05T08:11:33.057Z,36.65
2022-10-05T08:14:13.387Z,36.33
2022-10-05T08:16:44.782Z,36.43
2022-10-05T08:19:27.087Z,37.03
2022-10-05T08:22:03.706Z,37.59
2022-10-05T08:25:02.634Z,37.86
2022-10-05T08:27:48.958Z,37.32
2022-10-05T08:30:20.525Z,37.22
2022-10-05T08:33:16.814Z,37.35
2022-10-05T08:35:57.330Z,37.44
2022-10-05T08:38:36.836Z,36.94
2022-10-05T08:41:12.797Z,36.73
2022-10-05T08:43:51.817Z,37.45
2022-10-05T08:46:27.847Z,37.32
2022-10-05T08:49:19.253Z,37.52
2022-10-05T08:52:04.496Z,37.54
2022-10-05T08:54:44.181Z,38.52
2022-10-05T08:57:20.313Z,37.42
2022-10-05T09:00:20.896Z,38.44
2022-10-05T09:03:34.447Z,38.26
2022-10-05T09:06:18.753Z,37.77
2022-10-05T09:09:00.865Z,38.27
2022-10-05T09:12:12.420Z,38.94
2022-10-05T09:15:25.273Z,38.49
2022-10-05T09:18:27.090Z,38.57
2022-10-05T09:21:23.061Z,38.44
2022-10-05T09:24:17.970Z,38.63
2022-10-05T09:27:00.971Z,39.00
2022-10-05T09:29:49.112Z,39.18
2022-10-05T09:32:33.949Z,39.01
2022-10-05T09:35:15.641Z,39.29
2022-10-05T09:38:20.371Z,39.61
2022-10-05T09:41:11.591Z,40.07
2022-10-05T09:43:44.737Z,39.97
2022-10-05T09:46:30.788Z,40.07
2022-10-05T09:49:13.215Z,40.21
2022-10-05T09:51:55.562Z,40.33
2022-10-05T09:55:08.036Z,40.38
2022-10-05T09:58:15.746Z,41.20
2022-10-05T10:01:15.709Z,40.76
2022-10-05T10:04:11.635Z,41.04
2022-10-05T10:07:07.509Z,40.71
2022-10-05T10:09:51.657Z,40.28
2022-10-05T10:12:49.129Z,40.60
2022-10-05T10:15:55.731Z,39.84
2022-10-05T10:18:32.814Z,40.12
2022-10-05T10:21:36.477Z,39.43
2022-10-05T10:24:39.962Z,39.40
2022-10-05T10:27:52.309Z,40.28
2022-10-05T10:30:24.039Z,40.67
2022-10-05T10:33:17.055Z,40.16
2022-10-05T10:36:06.046Z,39.20
2022-10-05T10:39:00.041Z,39.44
2022-10-05T10:41:30.221Z,39.53
2022-10-05T10:44:26.441Z,39.98
2022-10-05T10:47:12.861Z,39.33
2022-10-05T10:50:00.863Z,39.73
2022-10-05T10:52:32.803Z,39.24
2022-10-05T10:55:02.891Z,38.66
2022-10-05T10:57:46.881Z,39.68
2022-10-05T11:00:32.174Z,39.49
2022-10-05T11:03:14.576Z,39.41
2022-10-05T11:05:59.989Z,39.25
2022-10-05T11:08:53.954Z,39.64
2022-10-05T11:11:38.835Z,39.89
2022-10-05T11:14:27.600Z,39.64
2022-10-05T11:17:30.792Z,39.89
2022-10-05T11:20:45.328Z,40.23
2022-10-05T11:23:18.341Z,40.52
2022-10-05T11:26:03.745Z,40.42
2022-10-05T11:29:01.437Z,40.13
2022-10-05T11:31:32.444Z,39.93
2022-10-05T11:34:29.979Z,40.02
2022-10-05T11:37:21.553Z,39.92
2022-10-05T11:40:35.025Z,39.89
2022-10-05T11:43:24.457Z,40.09
2022-10-05T11:46:20.351Z,40.18
2022-10-05T11:49:15.467Z,40.41
2022-10-05T11:51:50.003Z,40.36
2022-10-05T11:55:09.133Z,40.39
2022-10-05T11:58:10.958Z,40.53
2022-10-05T12:01:11.334Z,40.79
2022-10-05T12:04:02.935Z,40.21
2022-10-05T12:06:32.910Z,40.43
2022-10-05T12:09:24.382Z,40.66
2022-10-05T12:12:28.468Z,40.89
2022-10-05T12:15:20.848Z,40.69
2022-10-05T12:18:09.678Z,40.63
2022-10-05T12:20:56.902Z,40.68
2022-10-05T12:24:02.100Z,40.29
2022-10-05T12:26:54.448Z,40.50
2022-10-05T12:29:36.616Z,41.01
2022-10-05T12:32:14.253Z,41.48
2022-10-05T12:35:07.369Z,40.83
2022-10-05T12:37:47.780Z,40.66
2022-10-05T12:40:46.877Z,40.28
2022-10-05T12:43:41.262Z,40.23
2022-10-05T12:46:28.805Z,40.34
2022-10-05T12:49:01.868Z,40.77
2022-10-05T12:51:56.280Z,40.89
2022-10-05T12:54:44.577Z,40.30
2022-10-05T12:57:28.338Z,40.39
2022-10-05T13:00:01.587Z,40.56
2022-10-05T13:02:45.866Z,40.23
2022-10-05T13:05:22.824Z,40.45
2022-10-05T13:08:19.641Z,40.59
2022-10-05T13:11:31.806Z,40.80
2022-10-05T13:14:36.797Z,41.00
2022-10-05T13:17:33.566Z,40.98
2022-10-05T13:20:24.835Z,40.67
2022-10-05T13:23:17.779Z,40.93
2022-10-05T13:25:59.270Z,41.37
2022-10-05T13:29:17.958Z,40.96
2022-10-05T13:32:02.126Z,41.05
2022-10-05T13:34:41.753Z,41.12
2022-10-05T13:37:46.955Z,41.08
2022-10-05T13:40:26.072Z,41.74
2022-10-05T13:43:23.745Z,41.32
2022-10-05T13:46:18.599Z,41.29
2022-10-05T13:49:01.686Z,41.38
2022-10-05T13:51:43.561Z,42.14
2022-10-05T13:54:23.137Z,41.44
2022-10-05T13:57:19.137Z,42.67
2022-10-05T13:59:59.300Z,41.93
2022-10-05T14:02:40.381Z,41.83
2022-10-05T14:05:22.073Z,43.06
2022-10-05T14:07:57.365Z,43.04
2022-10-05T14:10:43.537Z,42.17
2022-10-05T14:13:36.567Z,42.91
2022-10-05T14:16:20.019Z,43.31
2022-10-05T14:19:00.462Z,43.56
2022-10-05T14:21:45.756Z,42.96
2022-10-05T14:24:53.819Z,43.87
2022-10-05T14:27:26.413Z,43.71
2022-10-05T14:30:25.214Z,44.33
2022-10-05T14:33:06.238Z,43.81
2022-10-05T14:35:55.130Z,43.00
2022-10-05T14:38:54.786Z,44.15
2022-10-05T14:41:29.736Z,44.21
2022-10-05T14:44:12.004Z,43.84
2022-10-05T14:46:55.934Z,43.57
2022-10-05T14:49:30.654Z,44.12
2022-10-05T14:52:01.295Z,44.53
2022-10-05T14:54:43.128Z,44.85
2022-10-05T14:57:33.510Z,43.73
2022-10-05T15:00:07.706Z,45.37
2022-10-05T15:02:49.514Z,44.64
2022-10-05T15:05:32.926Z,45.12
2022-10-05T15:08:14.256Z,44.73
2022-10-05T15:11:07.022Z,44.23
2022-10-05T15:13:45.638Z,43.51
2022-10-05T15:16:35.618Z,43.77
2022-10-05T15:19:17.601Z,42.95
2022-10-05T15:22:20.644Z,43.55
2022-10-05T15:25:01.272Z,44.38
2022-10-05T15:27:57.134Z,45.05
2022-10-05T15:30:27.656Z,45.09
2022-10-05T15:33:30.837Z,45.71
2022-10-05T15:36:44.285Z,45.49
2022-10-05T15:39:34.084Z,45.10
2022-10-05T15:42:18.269Z,45.39
2022-10-05T15:44:55.488Z,46.32
2022-10-05T15:47:37.786Z,45.38
2022-10-05T15:50:40.113Z,45.69
2022-10-05T15:53:21.656Z,44.83
2022-10-05T15:56:01.085Z,45.49
2022-10-05T15:58:43.135Z,45.26
2022-10-05T16:01:15.479Z,45.08
2022-10-05T16:03:49.379Z,46.03
2022-10-05T16:06:49.900Z,44.79
2022-10-05T16:09:30.712Z,44.82
2022-10-05T16:12:20.146Z,44.69
2022-10-05T16:14:58.184Z,45.14
2022-10-05T16:17:59.199Z,44.36
2022-10-05T16:20:42.866Z,44.73
2022-10-05T16:23:49.664Z,44.00
2022-10-05T16:26:39.922Z,44.80
2022-10-05T16:29:28.083Z,44.28
2022-10-05T16:32:12.198Z,44.45
2022-10-05T16:35:04.757Z,43.70
2022-10-05T16:37:42.748Z,45.56
2022-10-05T16:40:32.311Z,45.13
2022-10-05T16:43:11.724Z,44.94
2022-10-05T16:46:03.168Z,45.63
2022-10-05T16:49:02.802Z,45.42
2022-10-05T16:52:00.651Z,46.14
2022-10-05T16:54:36.579Z,47.18
2022-10-05T16:57:07.195Z,45.97
2022-10-05T16:59:43.805Z,46.00
2022-10-05T17:02:16.475Z,46.77
2022-10-05T17:05:30.673Z,46.49
2022-10-05T17:08:12.627Z,47.01
2022-10-05T17:11:01.122Z,45.76
2022-10-05T17:13:46.313Z,46.46
2022-10-05T17:16:36.337Z,47.52
2022-10-05T17:19:12.078Z,48.09
2022-10-05T17:22:01.768Z,47.10
2022-10-05T17:25:16.088Z,46.87
2022-10-05T17:28:17.857Z,47.26
2022-10-05T17:31:21.607Z,47.50
2022-10-05T17:34:14.281Z,47.24
2022-10-05T17:36:54.999Z,48.04
2022-10-05T17:39:46.918Z,49.14
2022-10-05T17:42:30.601Z,47.33
2022-10-05T17:45:20.850Z,47.22
2022-10-05T17:48:03.066Z,48.14
2022-10-05T17:51:08.455Z,47.91
2022-10-05T17:53:58.545Z,49.48
2022-10-05T17:56:29.456Z,49.17
2022-10-05T17:59:04.445Z,49.11
2022-10-05T18:01:44.164Z,47.39
2022-10-05T18:04:14.198Z,48.14
2022-10-05T18:07:02.678Z,46.40
2022-10-05T18:09:37.688Z,47.86
2022-10-05T18:12:20.802Z,45.40
2022-10-05T18:15:05.546Z,46.29
2022-10-05T18:17:48.016Z,46.93
2022-10-05T18:20:30.232Z,49.05
2022-10-05T18:23:09.074Z,48.86
2022-10-05T18:25:51.278Z,47.86
2022-10-05T18:28:27.881Z,48.23
2022-10-05T18:31:33.725Z,47.06
2022-10-05T18:34:16.163Z,47.55
2022-10-05T18:37:01.866Z,47.72
2022-10-05T18:40:10.142Z,48.20
2022-10-05T18:42:43.464Z,49.70
2022-10-05T18:45:38.925Z,47.81
2022-10-05T18:48:48.265Z,48.01
2022-10-05T18:51:35.236Z,48.52
2022-10-05T18:54:05.331Z,49.37
2022-10-05T18:56:50.708Z,47.45
2022-10-05T18:59:26.869Z,48.16
2022-10-05T19:02:21.417Z,47.19
2022-10-05T19:05:45.839Z,47.31
2022-10-05T19:08:13.946Z,48.57
2022-10-05T19:10:43.336Z,47.65
2022-10-05T19:13:28.764Z,48.85
2022-10-05T19:16:52.534Z,49.03
2022-10-05T19:19:46.211Z,50.34
2022-10-05T19:22:22.032Z,50.38
2022-10-05T19:25:15.760Z,49.14
2022-10-05T19:28:15.057Z,49.76
2022-10-05T19:30:57.407Z,50.06
2022-10-05T19:33:55.020Z,49.14
2022-10-05T19:36:30.940Z,51.29
2022-10-05T19:39:13.010Z,49.81
2022-10-05T19:41:52.085Z,50.91
2022-10-05T19:44:51.268Z,49.67
2022-10-05T19:47:41.270Z,49.97
2022-10-05T19:50:25.301Z,49.97
2022-10-05T19:53:14.704Z,50.37
2022-10-05T19:55:48.414Z,51.93
2022-10-05T19:58:42.256Z,49.62
2022-10-05T20:01:12.692Z,49.05
2022-10-05T20:03:43.947Z,52.02
2022-10-05T20:06:14.133Z,51.33
2022-10-05T20:08:47.255Z,52.02
2022-10-05T20:11:18.542Z,52.02
2022-10-05T20:13:57.462Z,51.53
2022-10-05T20:16:46.186Z,53.70
2022-10-05T20:19:56.699Z,52.47
2022-10-05T20:22:37.095Z,54.19
2022-10-05T20:25:31.773Z,51.66
2022-10-05T20:28:03.668Z,53.87
2022-10-05T20:30:36.625Z,52.74
2022-10-05T20:33:11.797Z,51.97
2022-10-05T20:35:42.425Z,52.79
2022-10-05T20:38:12.610Z,53.22
2022-10-05T20:40:42.729Z,52.65
2022-10-05T20:43:12.751Z,52.65
2022-10-05T20:45:44.756Z,52.79
2022-10-05T20:48:17.993Z,52.19
2022-10-05T20:50:48.802Z,52.17
2022-10-05T20:53:18.880Z,52.69
2022-10-05T20:55:48.900Z,51.55
2022-10-05T20:58:19.425Z,52.29
2022-10-05T21:01:08.149Z,51.49
2022-10-05T21:03:38.884Z,52.23
2022-10-05T21:06:09.230Z,51.80
2022-10-05T21:08:39.761Z,51.68
2022-10-05T21:11:12.647Z,52.06
2022-10-05T21:13:49.267Z,51.67
2022-10-05T21:16:24.124Z,51.67
2022-10-05T21:18:55.105Z,52.05
2022-10-05T21:21:27.735Z,52.38
2022-10-05T21:23:58.585Z,52.26
2022-10-05T21:26:32.141Z,51.91
2022-10-05T21:29:03.760Z,51.59
2022-10-05T21:31:33.891Z,52.12
2022-10-05T21:34:04.717Z,52.23
2022-10-05T21:36:35.010Z,52.29
2022-10-05T21:39:05.924Z,51.99
2022-10-05T21:41:35.973Z,51.58
2022-10-05T21:44:07.794Z,51.34
2022-10-05T21:46:39.620Z,51.10
2022-10-05T21:49:11.155Z,51.75
2022-10-05T21:51:41.962Z,51.37
2022-10-05T21:54:16.042Z,50.95
2022-10-05T21:56:51.799Z,50.69
2022-10-05T21:59:24.682Z,51.38
2022-10-05T22:01:55.388Z,51.43
2022-10-05T22:04:25.687Z,51.55
2022-10-05T22:06:57.433Z,51.36
2022-10-05T22:09:29.273Z,51.35
2022-10-05T22:12:00.033Z,51.04
2022-10-05T22:14:30.426Z,51.15
2022-10-05T22:17:00.508Z,51.50
2022-10-05T22:19:30.628Z,51.71
2022-10-05T22:22:01.141Z,51.63
2022-10-05T22:24:31.822Z,51.18
2022-10-05T22:27:01.972Z,50.68
2022-10-05T22:29:33.003Z,50.67
2022-10-05T22:32:03.841Z,50.31
2022-10-05T22:34:34.319Z,50.86
2022-10-05T22:37:06.091Z,49.83
2022-10-05T22:39:36.781Z,50.43
2022-10-05T22:42:07.241Z,50.49
2022-10-05T22:44:38.366Z,50.48
2022-10-05T22:47:09.842Z,49.80
2022-10-05T22:49:40.069Z,50.30
2022-10-05T22:52:10.293Z,49.86
2022-10-05T22:54:40.514Z,49.63
2022-10-05T22:57:11.224Z,49.39
2022-10-05T22:59:41.703Z,49.50
2022-10-05T23:02:12.190Z,49.92
2022-10-05T23:04:43.104Z,49.88
2022-10-05T23:07:13.398Z,49.54
2022-10-05T23:09:43.462Z,49.80
2022-10-05T23:12:15.123Z,49.78
2022-10-05T23:14:45.815Z,50.07
2022-10-05T23:17:15.875Z,49.71
2022-10-05T23:19:45.959Z,50.04
2022-10-05T23:22:16.813Z,50.16
2022-10-05T23:24:46.956Z,50.97
2022-10-05T23:27:17.783Z,50.94
2022-10-05T23:29:48.134Z,51.26
2022-10-05T23:32:18.774Z,50.30
2022-10-05T23:34:49.287Z,51.88
2022-10-05T23:37:21.017Z,51.76
2022-10-05T23:39:50.624Z,51.52
2022-10-05T23:42:21.747Z,51.51
2022-10-05T23:44:52.512Z,51.30
2022-10-05T23:47:23.242Z,50.10
2022-10-05T23:49:53.682Z,49.32
2022-10-05T23:52:24.114Z,49.29
2022-10-05T23:54:55.633Z,48.54
2022-10-05T23:57:26.326Z,48.82
2022-10-05T23:59:57.771Z,48.84
